PAOMPANC

Guest
Details From PAOM - Nome
To PANC - Ted Stevens Anchorage Intl
Flight Number -
Tags Generated
Created
Modified
Stats Distance 467 nm / 865 km
Max Altitude 0 ft / 0 m
Waypoints 4
Social Downloads 0
Likes 0
Share VATSIM

Download

Looking for another format? Having issues loading an existing format? Contact us
Advertisement - Login to hide

Notes

Generated

Route

PAOM CHEFF R0549 PANC

ID Type Via Altitude Latitude Longitude Leg Dist Tot Dist Heading (true) Name
O PAOM APT - 0 ft / 0 m 64.50723˚ -165.45178˚ - 0 nm - NOME
CHEFF FIX - 0 ft / 0 m 63.03611˚ -157.38039˚ 231 nm 231 nm 109° / 116° -
R0549 FIX - 0 ft / 0 m 61.16976˚ -150.00833˚ 235 nm 466 nm 115° / 122° -
O PANC APT - 0 ft / 0 m 61.16976˚ -150.00833˚ 0 nm 466 nm 0° / 180° -

Altitude Profile

Advertisement - Login to hide

Weather


0- 5 10 15 20 25 30 35+ Temperature / ° C

Clouds and Precipitation
Forecast for 2018-05-26 12:00 UTC. Updated 5 hours ago

Ground ~20,000 ft ~40,000 ft Winds

PAOM

Details ICAO PAOM (OME)
Name NOME
Region USA (Alaska)
Timezone America/Nome (UTC-8.0)
Stats Elevation 37 ft / 11 m (AMSL)
Location 64.512227° -165.445062°
Runways 2
Magnetic Variation 9.887° E

METAR

PAOM 261553Z 35006KT 10SM CLR 02/M02 A2973

Decode

TAF

TAF PAOM 261138Z 2612/2712 30012KT P6SM SCT025= TAF PABR 261138Z 2612/2712 06015KT P6SM VCFG SCT007 FM261500 06015KT 2SM BR OVC007 FM261800 06016KT P6SM OVC007

Decode

Departure Runways

ID Width Length Bearing (true) Bearing (mag) Surface Threshold Offset Overrun Length
03 151 ft / 46 m 5,560 ft / 1,695 m 41.63° 31.74° Asphalt 0 ft / 0 m 0 ft / 0 m
10 151 ft / 46 m 5,979 ft / 1,822 m 109.76° 99.87° Asphalt 0 ft / 0 m 0 ft / 0 m
21 151 ft / 46 m 5,560 ft / 1,695 m 221.65° 211.76° Asphalt 0 ft / 0 m 0 ft / 0 m
28 151 ft / 46 m 5,979 ft / 1,822 m 289.80° 279.91° Asphalt 0 ft / 0 m 0 ft / 0 m

PANC

Details ICAO PANC (ANC)
Name Ted Stevens Anchorage Intl
Region USA (Alaska)
Timezone America/Anchorage (UTC-8.0)
Stats Elevation 152 ft / 46 m (AMSL)
Location 61.174111° -149.995982°
Runways 3
Magnetic Variation 16.069° E

METAR

PANC 261553Z 17010KT 10SM FEW045 BKN055 BKN100 08/02 A2966

Decode

TAF

PANC 261448Z 2615/2718 16008G18KT P6SM SCT040 BKN060 FM261800 VRB06KT P6SM BKN070 FM262100 26008KT P6SM SCT080 FM270300 VRB05KT P6SM VCSH SCT060 BKN080

Decode

Destination Runways

ID Width Length Bearing (true) Bearing (mag) Surface Threshold Offset Overrun Length
07L 151 ft / 46 m 10,563 ft / 3,220 m 89.88° 73.81° Asphalt 0 ft / 0 m 381 ft / 116 m
07R 151 ft / 46 m 10,862 ft / 3,311 m 89.85° 73.78° Asphalt 0 ft / 0 m 499 ft / 152 m
15 151 ft / 46 m 11,563 ft / 3,524 m 164.90° 148.83° Asphalt 200 ft / 61 m 220 ft / 67 m
25L 151 ft / 46 m 10,862 ft / 3,311 m 269.91° 253.84° Asphalt 0 ft / 0 m 151 ft / 46 m
25R 151 ft / 46 m 10,563 ft / 3,220 m 269.94° 253.87° Asphalt 0 ft / 0 m 381 ft / 116 m
33 151 ft / 46 m 11,563 ft / 3,524 m 344.91° 328.84° Asphalt 892 ft / 272 m 449 ft / 137 m

Approach Navaids

Runway Type Ident Frequency Range Bearing (true) Bearing (mag) Slope Elevation
07L Localiser ITGN 109.90 MHz 18 nm / 33 km 89.91° 73.84° - 152 ft / 46 m (AMSL)
07L Glidescope ITGN 109.90 MHz 10 nm / 19 km 89.91° 73.84° 3.00° 119 ft / 36 m (AMSL)
07L DME ITGN 109.90 MHz 18 nm / 33 km - - - 152 ft / 46 m (AMSL)
07R Localiser IANC 111.30 MHz 18 nm / 33 km 89.88° 73.81° - 152 ft / 46 m (AMSL)
07R Glidescope IANC 111.30 MHz 10 nm / 19 km 89.90° 73.83° 3.00° 124 ft / 38 m (AMSL)
07R DME IANC 111.30 MHz 18 nm / 33 km - - - 152 ft / 46 m (AMSL)
15 Localiser IBSC 111.75 MHz 18 nm / 33 km 164.91° 148.84° - 152 ft / 46 m (AMSL)
15 Glidescope IBSC 111.75 MHz 10 nm / 19 km 164.90° 148.83° 3.20° 152 ft / 46 m (AMSL)
15 DME IBSC 111.75 MHz 18 nm / 33 km - - - 152 ft / 46 m (AMSL)

Popular Alternatives